createdAt,value
2019-04-27T00:00:38.515Z,9.99
2019-04-27T00:03:15.374Z,9.86
2019-04-27T00:05:55.155Z,9.75
2019-04-27T00:08:35.056Z,9.63
2019-04-27T00:11:08.834Z,9.62
2019-04-27T00:13:40.585Z,9.62
2019-04-27T00:16:11.302Z,9.49
2019-04-27T00:18:49.866Z,9.42
2019-04-27T00:21:23.870Z,9.38
2019-04-27T00:23:53.342Z,9.39
2019-04-27T00:26:23.332Z,9.39
2019-04-27T00:28:53.791Z,9.48
2019-04-27T00:31:23.509Z,9.56
2019-04-27T00:33:53.547Z,9.76
2019-04-27T00:36:24.809Z,9.75
2019-04-27T00:38:55.838Z,9.81
2019-04-27T00:41:25.355Z,9.94
2019-04-27T00:43:54.754Z,10.03
2019-04-27T00:46:24.178Z,10.02
2019-04-27T00:48:53.592Z,10.01
2019-04-27T00:51:23.237Z,9.98
2019-04-27T00:53:53.610Z,9.92
2019-04-27T00:56:37.234Z,9.90
2019-04-27T00:59:20.265Z,9.82
2019-04-27T01:02:07.742Z,9.79
2019-04-27T01:04:37.375Z,9.70
2019-04-27T01:07:06.850Z,9.74
2019-04-27T01:09:36.416Z,9.67
2019-04-27T01:12:06.147Z,9.71
2019-04-27T01:14:35.715Z,9.66
2019-04-27T01:17:05.269Z,9.71
2019-04-27T01:19:34.725Z,9.62
2019-04-27T01:22:04.272Z,9.56
2019-04-27T01:24:33.730Z,9.55
2019-04-27T01:27:16.579Z,9.50
2019-04-27T01:29:45.990Z,9.47
2019-04-27T01:32:16.250Z,9.45
2019-04-27T01:34:46.597Z,9.44
2019-04-27T01:37:15.989Z,9.39
2019-04-27T01:39:45.400Z,9.38
2019-04-27T01:42:14.801Z,9.36
2019-04-27T01:44:44.896Z,9.36
2019-04-27T01:47:14.311Z,9.34
2019-04-27T01:49:43.723Z,9.44
2019-04-27T01:52:13.113Z,9.43
2019-04-27T01:54:42.521Z,9.40
2019-04-27T01:57:11.990Z,9.42
2019-04-27T01:59:41.406Z,9.36
2019-04-27T02:02:21.415Z,9.38
2019-04-27T02:04:59.350Z,9.39
2019-04-27T02:07:30.031Z,9.48
2019-04-27T02:09:59.467Z,9.43
2019-04-27T02:12:29.119Z,9.45
2019-04-27T02:14:59.968Z,9.48
2019-04-27T02:17:29.356Z,9.47
2019-04-27T02:19:59.500Z,9.45
2019-04-27T02:22:29.682Z,9.47
2019-04-27T02:24:59.232Z,9.55
2019-04-27T02:27:30.331Z,9.54
2019-04-27T02:30:01.454Z,9.63
2019-04-27T02:32:41.089Z,9.51
2019-04-27T02:35:11.762Z,9.42
2019-04-27T02:37:41.146Z,9.31
2019-04-27T02:40:30.559Z,9.22
2019-04-27T02:43:00.084Z,9.14
2019-04-27T02:45:30.286Z,9.13
2019-04-27T02:47:59.939Z,9.06
2019-04-27T02:50:29.409Z,9.07
2019-04-27T02:52:59.873Z,8.94
2019-04-27T02:55:31.432Z,8.89
2019-04-27T02:58:00.852Z,8.90
2019-04-27T03:00:31.860Z,8.85
2019-04-27T03:03:03.090Z,8.87
2019-04-27T03:05:32.472Z,8.86
2019-04-27T03:08:01.948Z,8.84
2019-04-27T03:10:31.809Z,8.81
2019-04-27T03:13:20.030Z,8.79
2019-04-27T03:16:03.313Z,8.76
2019-04-27T03:18:50.844Z,8.70
2019-04-27T03:21:21.982Z,8.72
2019-04-27T03:23:51.539Z,8.63
2019-04-27T03:26:22.592Z,8.62
2019-04-27T03:28:53.028Z,8.55
2019-04-27T03:31:22.440Z,8.56
2019-04-27T03:33:58.559Z,8.55
2019-04-27T03:36:23.056Z,8.60
2019-04-27T03:38:52.458Z,8.59
2019-04-27T03:41:22.006Z,8.58
2019-04-27T03:43:54.276Z,8.54
2019-04-27T03:46:23.739Z,8.55
2019-04-27T03:48:53.285Z,8.54
2019-04-27T03:51:42.259Z,8.60
2019-04-27T03:54:13.292Z,8.61
2019-04-27T03:56:44.359Z,8.81
2019-04-27T03:59:27.177Z,8.87
2019-04-27T04:01:59.035Z,9.02
2019-04-27T04:04:29.611Z,9.07
2019-04-27T04:07:14.768Z,9.09
2019-04-27T04:09:44.237Z,9.19
2019-04-27T04:12:23.816Z,9.28
2019-04-27T04:14:53.208Z,9.34
2019-04-27T04:17:24.249Z,9.38
2019-04-27T04:19:57.237Z,9.41
2019-04-27T04:22:24.827Z,9.51
2019-04-27T04:24:54.213Z,9.56
2019-04-27T04:27:23.621Z,9.65
2019-04-27T04:29:53.065Z,9.75
2019-04-27T04:32:22.475Z,9.90
2019-04-27T04:34:51.861Z,9.96
2019-04-27T04:37:21.267Z,9.91
2019-04-27T04:39:53.543Z,9.92
2019-04-27T04:42:29.943Z,9.98
2019-04-27T04:45:01.163Z,9.86
2019-04-27T04:47:34.631Z,9.96
2019-04-27T04:50:14.425Z,9.96
2019-04-27T04:52:41.868Z,10.06
2019-04-27T04:55:10.112Z,10.17
2019-04-27T04:57:40.127Z,10.19
2019-04-27T05:00:10.046Z,10.18
2019-04-27T05:02:39.899Z,10.12
2019-04-27T05:05:09.560Z,10.18
2019-04-27T05:07:39.006Z,10.15
2019-04-27T05:10:09.156Z,10.33
2019-04-27T05:12:38.794Z,10.36
2019-04-27T05:15:09.132Z,10.26
2019-04-27T05:17:39.861Z,10.30
2019-04-27T05:20:22.283Z,10.24
2019-04-27T05:22:42.305Z,10.24
2019-04-27T05:25:11.706Z,10.11
2019-04-27T05:27:41.166Z,10.21
2019-04-27T05:30:10.916Z,10.07
2019-04-27T05:32:40.319Z,10.13
2019-04-27T05:35:09.896Z,10.34
2019-04-27T05:37:39.333Z,10.27
2019-04-27T05:40:09.189Z,10.04
2019-04-27T05:42:39.782Z,10.08
2019-04-27T05:45:15.343Z,10.15
2019-04-27T05:47:48.419Z,10.08
2019-04-27T05:50:18.429Z,10.20
2019-04-27T05:52:46.658Z,10.13
2019-04-27T05:55:16.144Z,10.20
2019-04-27T05:57:45.543Z,10.29
2019-04-27T06:00:19.146Z,10.41
2019-04-27T06:02:48.835Z,10.39
2019-04-27T06:05:18.966Z,10.48
2019-04-27T06:07:48.907Z,10.45
2019-04-27T06:10:19.824Z,10.57
2019-04-27T06:12:49.388Z,10.58
2019-04-27T06:15:19.843Z,10.52
2019-04-27T06:17:49.338Z,10.61
2019-04-27T06:20:18.936Z,10.73
2019-04-27T06:22:48.923Z,10.56
2019-04-27T06:25:21.557Z,10.53
2019-04-27T06:27:49.702Z,10.68
2019-04-27T06:30:19.345Z,10.64
2019-04-27T06:32:49.473Z,10.79
2019-04-27T06:35:19.082Z,10.89
2019-04-27T06:37:49.237Z,10.99
2019-04-27T06:40:18.893Z,11.04
2019-04-27T06:42:48.694Z,11.14
2019-04-27T06:45:19.706Z,11.27
2019-04-27T06:47:51.198Z,11.11
2019-04-27T06:50:20.261Z,11.23
2019-04-27T06:52:49.656Z,11.44
2019-04-27T06:55:19.073Z,11.42
2019-04-27T06:57:49.090Z,11.51
2019-04-27T07:00:19.045Z,11.41
2019-04-27T07:02:49.263Z,11.35
2019-04-27T07:05:20.346Z,11.46
2019-04-27T07:07:49.860Z,11.52
2019-04-27T07:10:19.291Z,11.67
2019-04-27T07:12:49.171Z,11.68
2019-04-27T07:15:20.438Z,11.99
2019-04-27T07:17:49.693Z,12.17
2019-04-27T07:20:19.185Z,12.18
2019-04-27T07:22:49.679Z,12.25
2019-04-27T07:25:19.203Z,12.54
2019-04-27T07:27:49.372Z,12.93
2019-04-27T07:30:19.125Z,13.32
2019-04-27T07:32:48.916Z,13.34
2019-04-27T07:35:19.628Z,13.51
2019-04-27T07:37:49.287Z,13.62
2019-04-27T07:40:18.863Z,13.84
2019-04-27T07:42:49.955Z,14.04
2019-04-27T07:45:37.125Z,13.85
2019-04-27T07:48:06.617Z,13.46
2019-04-27T07:50:36.005Z,13.09
2019-04-27T07:53:05.427Z,12.67
2019-04-27T07:55:34.824Z,12.37
2019-04-27T07:58:05.225Z,12.42
2019-04-27T08:00:34.726Z,12.24
2019-04-27T08:03:04.332Z,12.14
2019-04-27T08:05:34.006Z,12.17
2019-04-27T08:08:03.432Z,11.95
2019-04-27T08:10:32.839Z,11.82
2019-04-27T08:13:02.262Z,11.83
2019-04-27T08:15:31.993Z,11.78
2019-04-27T08:18:01.384Z,11.83
2019-04-27T08:20:30.796Z,11.94
2019-04-27T08:23:01.373Z,11.71
2019-04-27T08:25:30.926Z,11.51
2019-04-27T08:28:08.546Z,11.43
2019-04-27T08:30:40.716Z,11.48
2019-04-27T08:33:11.484Z,11.51
2019-04-27T08:35:41.015Z,11.31
2019-04-27T08:38:10.442Z,11.28
2019-04-27T08:40:39.846Z,11.24
2019-04-27T08:43:09.385Z,11.30
2019-04-27T08:45:39.279Z,11.44
2019-04-27T08:48:09.335Z,11.39
2019-04-27T08:50:41.705Z,11.11
2019-04-27T08:53:10.018Z,11.24
2019-04-27T08:55:39.683Z,11.36
2019-04-27T08:58:10.070Z,11.40
2019-04-27T09:00:39.796Z,11.63
2019-04-27T09:03:09.618Z,11.65
2019-04-27T09:05:39.216Z,11.52
2019-04-27T09:08:22.378Z,11.46
2019-04-27T09:10:56.332Z,11.33
2019-04-27T09:13:29.798Z,11.23
2019-04-27T09:16:00.835Z,11.23
2019-04-27T09:21:29.977Z,11.38
2019-04-27T09:23:59.397Z,11.11
2019-04-27T09:26:28.836Z,11.14
2019-04-27T09:28:59.567Z,11.02
2019-04-27T09:31:28.999Z,11.04
2019-04-27T09:33:58.420Z,10.93
2019-04-27T09:36:27.824Z,11.20
2019-04-27T09:38:57.239Z,11.24
2019-04-27T09:41:26.706Z,11.51
2019-04-27T09:43:56.195Z,11.57
2019-04-27T09:46:26.056Z,11.53
2019-04-27T09:48:56.531Z,11.49
2019-04-27T09:51:25.982Z,11.57
2019-04-27T09:53:56.315Z,11.80
2019-04-27T09:56:26.176Z,11.65
2019-04-27T09:58:57.258Z,11.67
2019-04-27T10:01:28.860Z,11.55
2019-04-27T10:03:57.823Z,11.59
2019-04-27T10:06:29.863Z,11.38
2019-04-27T10:08:58.351Z,11.49
2019-04-27T10:11:27.790Z,11.49
2019-04-27T10:13:57.191Z,11.32
2019-04-27T10:16:26.623Z,11.37
2019-04-27T10:18:56.025Z,11.46
2019-04-27T10:21:26.424Z,11.42
2019-04-27T10:23:56.802Z,11.68
2019-04-27T10:26:26.289Z,12.06
2019-04-27T10:28:56.081Z,12.14
2019-04-27T10:31:25.494Z,11.84
2019-04-27T10:33:55.945Z,11.98
2019-04-27T10:36:40.794Z,11.82
2019-04-27T10:39:13.494Z,11.86
2019-04-27T10:41:43.090Z,11.94
2019-04-27T10:44:12.506Z,12.13
2019-04-27T10:46:41.977Z,12.38
2019-04-27T10:49:11.431Z,12.54
2019-04-27T10:51:40.856Z,12.78
2019-04-27T10:54:10.774Z,12.78
2019-04-27T10:56:40.188Z,12.70
2019-04-27T10:59:09.837Z,12.72
2019-04-27T11:01:39.305Z,12.84
2019-04-27T11:04:22.070Z,12.99
2019-04-27T11:06:53.130Z,12.99
2019-04-27T11:09:22.751Z,12.76
2019-04-27T11:11:52.282Z,12.35
2019-04-27T11:14:21.768Z,12.11
2019-04-27T11:16:51.186Z,12.08
2019-04-27T11:19:20.587Z,12.15
2019-04-27T11:21:50.263Z,12.08
2019-04-27T11:24:19.677Z,11.98
2019-04-27T11:26:49.103Z,11.92
2019-04-27T11:29:18.573Z,12.06
2019-04-27T11:31:48.001Z,12.15
2019-04-27T11:34:17.837Z,12.25
2019-04-27T11:36:57.935Z,12.14
2019-04-27T11:39:27.396Z,12.04
2019-04-27T11:41:56.953Z,12.02
2019-04-27T11:44:26.361Z,12.07
2019-04-27T11:46:55.964Z,12.13
2019-04-27T11:49:25.849Z,12.15
2019-04-27T11:51:56.685Z,12.11
2019-04-27T11:54:27.576Z,12.05
2019-04-27T11:56:57.193Z,11.97
2019-04-27T11:59:27.104Z,11.93
2019-04-27T12:01:56.627Z,11.86
2019-04-27T12:04:26.355Z,11.82
2019-04-27T12:06:56.471Z,11.74
2019-04-27T12:09:25.999Z,11.72
2019-04-27T12:11:57.466Z,11.70
2019-04-27T12:14:26.680Z,11.51
2019-04-27T12:16:56.260Z,11.52
2019-04-27T12:19:26.798Z,11.44
2019-04-27T12:21:56.577Z,11.39
2019-04-27T12:24:26.707Z,11.47
2019-04-27T12:26:57.951Z,11.44
2019-04-27T12:29:29.001Z,11.45
2019-04-27T12:31:58.404Z,11.44
2019-04-27T12:34:28.024Z,11.58
2019-04-27T12:36:57.422Z,11.60
2019-04-27T12:39:26.847Z,11.55
2019-04-27T12:41:56.232Z,11.34
2019-04-27T12:44:26.128Z,11.02
2019-04-27T12:46:57.512Z,10.88
2019-04-27T12:49:26.601Z,10.90
2019-04-27T12:51:56.034Z,10.97
2019-04-27T12:54:31.650Z,11.36
2019-04-27T12:57:20.820Z,12.10
2019-04-27T13:00:00.566Z,12.55
2019-04-27T13:02:34.008Z,12.56
2019-04-27T13:05:05.736Z,12.31
2019-04-27T13:07:35.175Z,12.30
2019-04-27T13:10:06.811Z,12.49
2019-04-27T13:12:36.227Z,12.79
2019-04-27T13:15:10.893Z,13.09
2019-04-27T13:17:40.320Z,13.42
2019-04-27T13:20:09.952Z,13.84
2019-04-27T13:22:39.366Z,14.24
2019-04-27T13:25:09.617Z,14.27
2019-04-27T13:27:39.062Z,14.03
2019-04-27T13:30:09.405Z,13.79
2019-04-27T13:32:38.831Z,13.90
2019-04-27T13:35:08.775Z,14.29
2019-04-27T13:37:39.909Z,14.61
2019-04-27T13:40:11.353Z,14.63
2019-04-27T13:42:57.957Z,14.69
2019-04-27T13:45:31.685Z,14.74
2019-04-27T13:48:18.961Z,14.78
2019-04-27T13:50:53.127Z,14.74
2019-04-27T13:53:22.550Z,14.76
2019-04-27T13:55:51.947Z,14.78
2019-04-27T13:58:21.369Z,14.76
2019-04-27T14:00:50.771Z,14.95
2019-04-27T14:03:21.093Z,15.05
2019-04-27T14:05:52.491Z,14.94
2019-04-27T14:08:21.672Z,15.09
2019-04-27T14:10:51.472Z,15.17
2019-04-27T14:13:20.877Z,15.43
2019-04-27T14:15:50.271Z,15.52
2019-04-27T14:18:19.687Z,15.42
2019-04-27T14:20:49.098Z,15.32
2019-04-27T14:23:20.155Z,15.11
2019-04-27T14:25:49.568Z,15.06
2019-04-27T14:28:18.997Z,15.22
2019-04-27T14:30:48.801Z,15.32
2019-04-27T14:33:18.672Z,15.44
2019-04-27T14:35:49.903Z,15.51
2019-04-27T14:38:19.460Z,15.66
2019-04-27T14:40:50.362Z,15.58
2019-04-27T14:43:19.856Z,15.23
2019-04-27T14:45:49.256Z,14.82
2019-04-27T14:48:18.673Z,14.10
2019-04-27T14:50:48.634Z,12.97
2019-04-27T14:53:18.068Z,12.30
2019-04-27T14:55:49.033Z,11.63
2019-04-27T14:58:19.379Z,11.21
2019-04-27T15:00:49.830Z,10.95
2019-04-27T15:03:19.449Z,10.84
2019-04-27T15:05:49.635Z,10.78
2019-04-27T15:08:20.284Z,10.80
2019-04-27T15:10:49.743Z,11.25
2019-04-27T15:13:19.273Z,11.55
2019-04-27T15:15:48.752Z,11.60
2019-04-27T15:18:19.743Z,11.78
2019-04-27T15:20:49.304Z,12.01
2019-04-27T15:23:20.073Z,12.05
2019-04-27T15:25:50.114Z,12.13
2019-04-27T15:28:32.903Z,12.43
2019-04-27T15:31:03.122Z,12.52
2019-04-27T15:33:51.452Z,12.52
2019-04-27T15:36:28.594Z,12.54
2019-04-27T15:38:59.649Z,12.43
2019-04-27T15:41:31.530Z,12.66
2019-04-27T15:44:05.729Z,12.69
2019-04-27T15:46:33.810Z,12.73
2019-04-27T15:49:08.047Z,12.93
2019-04-27T15:51:35.837Z,12.97
2019-04-27T15:54:05.279Z,13.09
2019-04-27T15:56:35.095Z,13.14
2019-04-27T15:59:08.154Z,13.13
2019-04-27T16:01:39.558Z,13.31
2019-04-27T16:04:11.115Z,13.53
2019-04-27T16:06:42.841Z,13.66
2019-04-27T16:09:16.143Z,13.69
2019-04-27T16:11:50.232Z,13.71
2019-04-27T16:14:15.280Z,13.78
2019-04-27T16:16:44.749Z,13.78
2019-04-27T16:19:14.231Z,13.60
2019-04-27T16:21:47.779Z,13.48
2019-04-27T16:24:17.210Z,13.26
2019-04-27T16:26:46.408Z,13.06
2019-04-27T16:29:18.685Z,12.89
2019-04-27T16:31:48.232Z,12.90
2019-04-27T16:34:18.477Z,12.79
2019-04-27T16:36:48.069Z,12.77
2019-04-27T16:39:18.130Z,12.72
2019-04-27T16:41:50.309Z,12.73
2019-04-27T16:44:19.800Z,12.74
2019-04-27T16:46:49.223Z,12.60
2019-04-27T16:49:18.810Z,12.67
2019-04-27T16:51:49.176Z,12.61
2019-04-27T16:54:21.308Z,12.43
2019-04-27T16:59:39.836Z,11.80
2019-04-27T17:01:52.136Z,11.27
2019-04-27T17:04:21.535Z,10.78
2019-04-27T17:06:50.952Z,10.41
2019-04-27T17:09:20.424Z,10.00
2019-04-27T17:11:51.664Z,9.59
2019-04-27T17:12:41.350Z,12.39
2019-04-27T17:14:26.599Z,9.22
2019-04-27T17:16:58.294Z,8.89
2019-04-27T17:19:35.762Z,8.69
2019-04-27T17:22:02.875Z,8.67
2019-04-27T17:24:44.726Z,8.62
2019-04-27T17:27:11.014Z,8.80
2019-04-27T17:29:40.234Z,8.77
2019-04-27T17:32:11.725Z,8.72
2019-04-27T17:34:41.146Z,8.76
2019-04-27T17:37:10.553Z,8.75
2019-04-27T17:39:39.950Z,8.93
2019-04-27T17:42:09.400Z,8.96
2019-04-27T17:44:39.352Z,9.11
2019-04-27T17:47:10.633Z,9.21
2019-04-27T17:49:39.981Z,9.28
2019-04-27T17:52:13.130Z,9.22
2019-04-27T17:54:47.243Z,9.24
2019-04-27T17:57:13.584Z,9.31
2019-04-27T17:59:42.693Z,9.31
2019-04-27T18:02:12.097Z,9.30
2019-04-27T18:04:41.494Z,9.27
2019-04-27T18:07:11.006Z,9.13
2019-04-27T18:09:43.497Z,9.27
2019-04-27T18:12:14.896Z,9.23
2019-04-27T18:14:42.681Z,9.18
2019-04-27T18:17:12.340Z,9.10
2019-04-27T18:19:46.358Z,9.12
2019-04-27T18:22:15.791Z,9.18
2019-04-27T18:24:55.726Z,9.12
2019-04-27T18:27:33.628Z,9.01
2019-04-27T18:30:10.488Z,8.96
2019-04-27T18:32:40.438Z,9.01
2019-04-27T18:35:10.031Z,9.02
2019-04-27T18:37:39.481Z,8.93
2019-04-27T18:40:09.412Z,8.94
2019-04-27T18:42:38.904Z,8.94
2019-04-27T18:45:09.077Z,8.93
2019-04-27T18:47:40.562Z,9.00
2019-04-27T18:50:14.653Z,8.98
2019-04-27T18:53:03.282Z,8.92
2019-04-27T18:55:32.665Z,8.94
2019-04-27T18:58:02.211Z,8.90
2019-04-27T19:00:31.558Z,8.84
2019-04-27T19:03:00.975Z,8.92
2019-04-27T19:05:39.599Z,8.88
2019-04-27T19:08:01.480Z,8.89
2019-04-27T19:10:30.867Z,8.91
2019-04-27T19:13:00.273Z,8.90
2019-04-27T19:15:29.703Z,8.87
2019-04-27T19:17:59.114Z,8.94
2019-04-27T19:20:28.846Z,8.91
2019-04-27T19:22:59.830Z,8.91
2019-04-27T19:25:33.322Z,8.89
2019-04-27T19:28:08.431Z,8.83
2019-04-27T19:30:45.834Z,8.83
2019-04-27T19:33:15.241Z,8.81
2019-04-27T19:35:44.648Z,8.72
2019-04-27T19:38:14.036Z,8.73
2019-04-27T19:40:43.468Z,8.67
2019-04-27T19:43:12.865Z,8.75
2019-04-27T19:45:42.298Z,8.82
2019-04-27T19:48:11.675Z,8.82
2019-04-27T19:50:41.090Z,8.75
2019-04-27T19:53:10.479Z,8.68
2019-04-27T19:55:40.626Z,8.65
2019-04-27T19:58:10.321Z,8.60
2019-04-27T20:00:53.556Z,8.47
2019-04-27T20:03:33.798Z,8.60
2019-04-27T20:06:03.465Z,8.65
2019-04-27T20:08:43.712Z,8.50
2019-04-27T20:11:13.094Z,8.70
2019-04-27T20:13:42.501Z,8.58
2019-04-27T20:16:11.959Z,8.62
2019-04-27T20:18:43.290Z,8.42
2019-04-27T20:21:12.558Z,8.40
2019-04-27T20:23:41.966Z,8.36
2019-04-27T20:26:11.380Z,8.24
2019-04-27T20:28:41.453Z,8.25
2019-04-27T20:31:10.903Z,8.17
2019-04-27T20:33:41.598Z,8.00
2019-04-27T20:36:11.273Z,7.96
2019-04-27T20:38:41.828Z,7.95
2019-04-27T20:41:11.649Z,7.82
2019-04-27T20:43:42.038Z,7.80
2019-04-27T20:46:11.906Z,7.82
2019-04-27T20:48:41.509Z,7.83
2019-04-27T20:51:11.507Z,7.69
2019-04-27T20:53:42.651Z,7.71
2019-04-27T20:56:12.055Z,7.62
2019-04-27T20:58:41.460Z,7.50
2019-04-27T21:01:10.939Z,7.47
2019-04-27T21:03:41.969Z,7.54
2019-04-27T21:06:13.020Z,7.39
2019-04-27T21:08:43.996Z,7.42
2019-04-27T21:11:13.472Z,7.34
2019-04-27T21:13:42.878Z,7.29
2019-04-27T21:16:12.631Z,7.26
2019-04-27T21:18:42.125Z,7.26
2019-04-27T21:21:11.553Z,7.20
2019-04-27T21:23:41.522Z,7.14
2019-04-27T21:26:11.116Z,7.21
2019-04-27T21:28:42.941Z,7.06
2019-04-27T21:31:12.804Z,7.12
2019-04-27T21:33:42.236Z,7.00
2019-04-27T21:36:11.889Z,7.03
2019-04-27T21:38:42.900Z,7.03
2019-04-27T21:41:12.651Z,6.97
2019-04-27T21:43:43.747Z,6.94
2019-04-27T21:46:13.330Z,7.06
2019-04-27T21:48:42.764Z,7.05
2019-04-27T21:51:12.290Z,6.99
2019-04-27T21:53:46.034Z,6.87
2019-04-27T21:56:15.459Z,6.80
2019-04-27T21:58:44.900Z,6.80
2019-04-27T22:01:16.231Z,6.80
2019-04-27T22:03:45.847Z,6.81
2019-04-27T22:06:15.254Z,6.75
2019-04-27T22:08:44.650Z,6.71
2019-04-27T22:11:14.165Z,6.70
2019-04-27T22:13:43.552Z,6.64
2019-04-27T22:16:13.187Z,6.67
2019-04-27T22:18:42.536Z,6.75
2019-04-27T22:21:11.934Z,6.80
2019-04-27T22:23:54.971Z,6.68
2019-04-27T22:26:24.408Z,6.67
2019-04-27T22:28:53.799Z,6.72
2019-04-27T22:31:23.280Z,6.70
2019-04-27T22:33:54.634Z,6.79
2019-04-27T22:36:23.785Z,6.75
2019-04-27T22:38:55.056Z,6.81
2019-04-27T22:41:26.175Z,6.79
2019-04-27T22:43:57.254Z,6.87
2019-04-27T22:46:33.997Z,6.98
2019-04-27T22:49:03.386Z,6.96
2019-04-27T22:51:32.794Z,7.01
2019-04-27T22:54:02.181Z,7.10
2019-04-27T22:56:32.265Z,7.17
2019-04-27T22:59:06.047Z,7.17
2019-04-27T23:01:42.873Z,7.08
2019-04-27T23:04:16.651Z,7.10
2019-04-27T23:06:46.058Z,7.08
2019-04-27T23:09:15.524Z,7.13
2019-04-27T23:11:45.007Z,7.15
2019-04-27T23:14:14.462Z,7.06
2019-04-27T23:16:45.582Z,7.03
2019-04-27T23:19:14.977Z,7.00
2019-04-27T23:21:44.385Z,7.05
2019-04-27T23:24:13.764Z,7.01
2019-04-27T23:26:43.186Z,6.93
2019-04-27T23:29:15.691Z,6.75
2019-04-27T23:31:45.329Z,6.65
2019-04-27T23:34:14.716Z,6.78
2019-04-27T23:36:44.429Z,6.58
2019-04-27T23:39:14.073Z,6.66
2019-04-27T23:41:43.490Z,6.57
2019-04-27T23:44:12.882Z,6.50
2019-04-27T23:46:42.355Z,6.57
2019-04-27T23:49:12.185Z,6.61
2019-04-27T23:51:51.891Z,6.69
2019-04-27T23:54:21.384Z,6.65
2019-04-27T23:56:51.890Z,6.51
2019-04-27T23:59:25.174Z,6.34
